Craintown, Kentucky
Current Conditions -  °F | °C
As of 12:15 AM on Saturday 20 Dec 2014 (Local Time) from KFGX Reporting Station
Scattered Clouds Scattered Clouds  
Wind Chill: 24°   Ceiling: Unl
Heat Index: 24°   Visibility: 7mi
Dew Point: 21°   Wind: 3mph
Humidity: 89%   Direction: 130°SE
Pressure: 30.26"   Gusts: NA
Location:  38.436°N, 83.6931°W
Report Text: KFGX 200515Z AUTO 13003KT 7SM SCT023 M04/M06 A3026 RMK AO2 T10451060
Loading
Personal Weather Stations






























Interactive Weather Map New forecast layout! Learn more

10-Day Weather Forecast

Advertisements
Track Severe Weather on mobile